sensor_id;sensor_type;location;lat;lon;timestamp;P1;durP1;ratioP1;P2;durP2;ratioP2
38557;SDS011;24333;42.626;23.308;2024-02-28T00:02:41;10.90;;;4.20;;
38557;SDS011;24333;42.626;23.308;2024-02-28T00:05:07;8.70;;;3.95;;
38557;SDS011;24333;42.626;23.308;2024-02-28T00:07:32;14.90;;;4.72;;
38557;SDS011;24333;42.626;23.308;2024-02-28T00:09:59;11.73;;;4.07;;
38557;SDS011;24333;42.626;23.308;2024-02-28T00:12:25;12.65;;;4.55;;
38557;SDS011;24333;42.626;23.308;2024-02-28T00:14:52;11.23;;;4.47;;
38557;SDS011;24333;42.626;23.308;2024-02-28T00:17:18;10.30;;;4.07;;
38557;SDS011;24333;42.626;23.308;2024-02-28T00:19:44;12.48;;;4.32;;
38557;SDS011;24333;42.626;23.308;2024-02-28T00:22:09;11.35;;;4.30;;
38557;SDS011;24333;42.626;23.308;2024-02-28T00:24:35;12.75;;;4.45;;
38557;SDS011;24333;42.626;23.308;2024-02-28T00:27:01;9.98;;;4.10;;
38557;SDS011;24333;42.626;23.308;2024-02-28T00:29:26;13.35;;;4.53;;
38557;SDS011;24333;42.626;23.308;2024-02-28T00:31:52;9.02;;;4.07;;
38557;SDS011;24333;42.626;23.308;2024-02-28T00:34:18;10.85;;;3.90;;
38557;SDS011;24333;42.626;23.308;2024-02-28T00:36:43;10.85;;;4.10;;
38557;SDS011;24333;42.626;23.308;2024-02-28T00:39:10;9.45;;;4.18;;
38557;SDS011;24333;42.626;23.308;2024-02-28T00:41:37;10.63;;;3.88;;
38557;SDS011;24333;42.626;23.308;2024-02-28T00:44:03;9.07;;;4.03;;
38557;SDS011;24333;42.626;23.308;2024-02-28T00:46:30;8.30;;;3.90;;
38557;SDS011;24333;42.626;23.308;2024-02-28T00:48:55;12.95;;;4.55;;
38557;SDS011;24333;42.626;23.308;2024-02-28T00:51:21;8.02;;;3.72;;
38557;SDS011;24333;42.626;23.308;2024-02-28T00:53:46;12.45;;;3.90;;
38557;SDS011;24333;42.626;23.308;2024-02-28T00:56:12;10.68;;;4.55;;
38557;SDS011;24333;42.626;23.308;2024-02-28T00:58:38;10.32;;;4.00;;
38557;SDS011;24333;42.626;23.308;2024-02-28T01:01:03;8.27;;;3.40;;
38557;SDS011;24333;42.626;23.308;2024-02-28T01:03:30;8.93;;;3.80;;
38557;SDS011;24333;42.626;23.308;2024-02-28T01:06:04;10.23;;;4.35;;
38557;SDS011;24333;42.626;23.308;2024-02-28T01:08:30;19.35;;;4.80;;
38557;SDS011;24333;42.626;23.308;2024-02-28T01:10:56;11.90;;;4.82;;
38557;SDS011;24333;42.626;23.308;2024-02-28T01:13:22;14.77;;;4.50;;
38557;SDS011;24333;42.626;23.308;2024-02-28T01:15:48;9.98;;;4.13;;
38557;SDS011;24333;42.626;23.308;2024-02-28T01:18:31;11.27;;;4.53;;
38557;SDS011;24333;42.626;23.308;2024-02-28T01:20:58;12.10;;;4.15;;
38557;SDS011;24333;42.626;23.308;2024-02-28T01:23:30;13.40;;;4.28;;
38557;SDS011;24333;42.626;23.308;2024-02-28T01:26:13;11.55;;;4.28;;
38557;SDS011;24333;42.626;23.308;2024-02-28T01:28:40;12.70;;;4.75;;
38557;SDS011;24333;42.626;23.308;2024-02-28T01:33:55;11.00;;;4.88;;
38557;SDS011;24333;42.626;23.308;2024-02-28T01:36:21;14.43;;;4.95;;
38557;SDS011;24333;42.626;23.308;2024-02-28T01:38:47;11.18;;;4.47;;
38557;SDS011;24333;42.626;23.308;2024-02-28T01:41:12;16.92;;;5.55;;
38557;SDS011;24333;42.626;23.308;2024-02-28T01:43:38;15.40;;;5.03;;
38557;SDS011;24333;42.626;23.308;2024-02-28T01:46:05;12.85;;;4.45;;
38557;SDS011;24333;42.626;23.308;2024-02-28T01:48:49;10.65;;;4.45;;
38557;SDS011;24333;42.626;23.308;2024-02-28T01:51:15;7.55;;;4.18;;
38557;SDS011;24333;42.626;23.308;2024-02-28T01:53:41;11.70;;;5.18;;
38557;SDS011;24333;42.626;23.308;2024-02-28T01:56:07;12.23;;;4.80;;
38557;SDS011;24333;42.626;23.308;2024-02-28T01:58:34;11.65;;;4.65;;
38557;SDS011;24333;42.626;23.308;2024-02-28T02:01:00;11.95;;;5.00;;
38557;SDS011;24333;42.626;23.308;2024-02-28T02:03:28;12.73;;;5.28;;
38557;SDS011;24333;42.626;23.308;2024-02-28T02:05:54;12.43;;;5.38;;
38557;SDS011;24333;42.626;23.308;2024-02-28T02:08:21;12.05;;;5.00;;
38557;SDS011;24333;42.626;23.308;2024-02-28T02:10:48;16.45;;;5.65;;
38557;SDS011;24333;42.626;23.308;2024-02-28T02:13:14;11.82;;;4.75;;
38557;SDS011;24333;42.626;23.308;2024-02-28T02:15:40;11.13;;;4.57;;
38557;SDS011;24333;42.626;23.308;2024-02-28T02:18:09;12.98;;;5.18;;
38557;SDS011;24333;42.626;23.308;2024-02-28T02:20:35;12.48;;;5.32;;
38557;SDS011;24333;42.626;23.308;2024-02-28T02:23:07;17.42;;;5.35;;
38557;SDS011;24333;42.626;23.308;2024-02-28T02:25:33;13.65;;;5.18;;
38557;SDS011;24333;42.626;23.308;2024-02-28T02:28:02;11.30;;;5.57;;
38557;SDS011;24333;42.626;23.308;2024-02-28T02:30:28;13.77;;;4.50;;
38557;SDS011;24333;42.626;23.308;2024-02-28T02:32:54;11.98;;;4.32;;
38557;SDS011;24333;42.626;23.308;2024-02-28T02:35:20;14.77;;;4.97;;
38557;SDS011;24333;42.626;23.308;2024-02-28T02:37:47;14.25;;;4.18;;
38557;SDS011;24333;42.626;23.308;2024-02-28T02:40:13;15.52;;;4.38;;
38557;SDS011;24333;42.626;23.308;2024-02-28T02:42:46;8.35;;;3.55;;
38557;SDS011;24333;42.626;23.308;2024-02-28T02:45:14;12.65;;;3.90;;
38557;SDS011;24333;42.626;23.308;2024-02-28T02:47:40;8.77;;;4.03;;
38557;SDS011;24333;42.626;23.308;2024-02-28T02:50:07;7.82;;;3.70;;
38557;SDS011;24333;42.626;23.308;2024-02-28T02:52:32;8.00;;;3.60;;
38557;SDS011;24333;42.626;23.308;2024-02-28T02:54:59;9.35;;;3.50;;
38557;SDS011;24333;42.626;23.308;2024-02-28T02:57:25;10.25;;;4.25;;
38557;SDS011;24333;42.626;23.308;2024-02-28T02:59:51;7.07;;;3.63;;
38557;SDS011;24333;42.626;23.308;2024-02-28T03:02:18;9.65;;;3.85;;
38557;SDS011;24333;42.626;23.308;2024-02-28T03:04:44;11.00;;;4.05;;
38557;SDS011;24333;42.626;23.308;2024-02-28T03:07:10;14.13;;;4.40;;
38557;SDS011;24333;42.626;23.308;2024-02-28T03:09:41;14.10;;;4.43;;
38557;SDS011;24333;42.626;23.308;2024-02-28T03:12:07;13.07;;;5.45;;
38557;SDS011;24333;42.626;23.308;2024-02-28T03:14:34;14.75;;;5.93;;
38557;SDS011;24333;42.626;23.308;2024-02-28T03:17:19;11.48;;;5.30;;
38557;SDS011;24333;42.626;23.308;2024-02-28T03:19:44;19.33;;;6.40;;
38557;SDS011;24333;42.626;23.308;2024-02-28T03:22:10;22.80;;;6.50;;
38557;SDS011;24333;42.626;23.308;2024-02-28T03:24:35;19.65;;;7.65;;
38557;SDS011;24333;42.626;23.308;2024-02-28T03:27:02;20.58;;;7.00;;
38557;SDS011;24333;42.626;23.308;2024-02-28T03:29:27;16.02;;;5.90;;
38557;SDS011;24333;42.626;23.308;2024-02-28T03:31:53;13.38;;;5.00;;
38557;SDS011;24333;42.626;23.308;2024-02-28T03:34:19;14.07;;;4.68;;
38557;SDS011;24333;42.626;23.308;2024-02-28T03:36:44;11.60;;;3.88;;
38557;SDS011;24333;42.626;23.308;2024-02-28T03:39:10;10.23;;;3.85;;
38557;SDS011;24333;42.626;23.308;2024-02-28T03:41:35;7.50;;;3.70;;
38557;SDS011;24333;42.626;23.308;2024-02-28T03:44:01;15.98;;;4.30;;
38557;SDS011;24333;42.626;23.308;2024-02-28T03:46:26;8.48;;;3.30;;
38557;SDS011;24333;42.626;23.308;2024-02-28T03:48:52;11.55;;;4.28;;
38557;SDS011;24333;42.626;23.308;2024-02-28T03:51:17;9.70;;;3.72;;
38557;SDS011;24333;42.626;23.308;2024-02-28T03:53:43;15.05;;;4.60;;
38557;SDS011;24333;42.626;23.308;2024-02-28T03:56:08;11.68;;;4.00;;
38557;SDS011;24333;42.626;23.308;2024-02-28T03:58:34;13.20;;;4.47;;
38557;SDS011;24333;42.626;23.308;2024-02-28T04:00:59;9.45;;;4.05;;
38557;SDS011;24333;42.626;23.308;2024-02-28T04:03:24;14.65;;;4.70;;
38557;SDS011;24333;42.626;23.308;2024-02-28T04:05:50;9.63;;;4.03;;
38557;SDS011;24333;42.626;23.308;2024-02-28T04:08:15;11.30;;;5.22;;
38557;SDS011;24333;42.626;23.308;2024-02-28T04:10:40;11.18;;;4.43;;
38557;SDS011;24333;42.626;23.308;2024-02-28T04:13:06;15.65;;;5.53;;
38557;SDS011;24333;42.626;23.308;2024-02-28T04:15:32;13.77;;;5.03;;
38557;SDS011;24333;42.626;23.308;2024-02-28T04:17:57;15.30;;;6.53;;
38557;SDS011;24333;42.626;23.308;2024-02-28T04:20:23;16.40;;;6.00;;
38557;SDS011;24333;42.626;23.308;2024-02-28T04:22:48;36.40;;;11.25;;
38557;SDS011;24333;42.626;23.308;2024-02-28T04:25:13;18.33;;;6.55;;
38557;SDS011;24333;42.626;23.308;2024-02-28T04:27:39;15.27;;;5.50;;
38557;SDS011;24333;42.626;23.308;2024-02-28T04:30:04;15.35;;;5.20;;
38557;SDS011;24333;42.626;23.308;2024-02-28T04:32:30;8.80;;;4.32;;
38557;SDS011;24333;42.626;23.308;2024-02-28T04:34:56;14.05;;;4.55;;
38557;SDS011;24333;42.626;23.308;2024-02-28T04:37:21;11.30;;;4.25;;
38557;SDS011;24333;42.626;23.308;2024-02-28T04:39:47;11.38;;;4.20;;
38557;SDS011;24333;42.626;23.308;2024-02-28T04:42:12;12.82;;;5.35;;
38557;SDS011;24333;42.626;23.308;2024-02-28T04:47:14;16.65;;;4.60;;
38557;SDS011;24333;42.626;23.308;2024-02-28T04:49:40;14.13;;;4.03;;
38557;SDS011;24333;42.626;23.308;2024-02-28T04:52:06;9.77;;;3.58;;
38557;SDS011;24333;42.626;23.308;2024-02-28T04:54:33;12.60;;;5.10;;
38557;SDS011;24333;42.626;23.308;2024-02-28T04:56:59;12.07;;;5.13;;
38557;SDS011;24333;42.626;23.308;2024-02-28T04:59:26;14.48;;;4.80;;
38557;SDS011;24333;42.626;23.308;2024-02-28T05:01:55;12.32;;;4.60;;
38557;SDS011;24333;42.626;23.308;2024-02-28T05:07:56;11.95;;;4.97;;
38557;SDS011;24333;42.626;23.308;2024-02-28T05:10:26;13.88;;;4.43;;
38557;SDS011;24333;42.626;23.308;2024-02-28T05:12:51;12.95;;;4.82;;
38557;SDS011;24333;42.626;23.308;2024-02-28T05:15:20;16.20;;;5.50;;
38557;SDS011;24333;42.626;23.308;2024-02-28T05:17:46;15.93;;;5.35;;
38557;SDS011;24333;42.626;23.308;2024-02-28T05:20:11;21.48;;;6.22;;
38557;SDS011;24333;42.626;23.308;2024-02-28T05:22:36;13.65;;;5.60;;
38557;SDS011;24333;42.626;23.308;2024-02-28T05:25:04;9.23;;;3.97;;
38557;SDS011;24333;42.626;23.308;2024-02-28T05:27:29;9.10;;;3.70;;
38557;SDS011;24333;42.626;23.308;2024-02-28T05:29:55;10.57;;;4.22;;
38557;SDS011;24333;42.626;23.308;2024-02-28T05:32:20;13.13;;;3.95;;
38557;SDS011;24333;42.626;23.308;2024-02-28T05:34:46;12.63;;;3.90;;
38557;SDS011;24333;42.626;23.308;2024-02-28T05:37:12;15.95;;;5.25;;
38557;SDS011;24333;42.626;23.308;2024-02-28T05:39:38;10.85;;;5.13;;
38557;SDS011;24333;42.626;23.308;2024-02-28T05:42:03;21.08;;;6.43;;
38557;SDS011;24333;42.626;23.308;2024-02-28T05:44:29;20.02;;;6.60;;
38557;SDS011;24333;42.626;23.308;2024-02-28T05:46:55;12.50;;;6.05;;
38557;SDS011;24333;42.626;23.308;2024-02-28T05:49:20;19.75;;;6.95;;
38557;SDS011;24333;42.626;23.308;2024-02-28T05:51:47;13.23;;;5.57;;
38557;SDS011;24333;42.626;23.308;2024-02-28T05:54:13;20.45;;;6.30;;
38557;SDS011;24333;42.626;23.308;2024-02-28T05:56:38;15.32;;;6.30;;
38557;SDS011;24333;42.626;23.308;2024-02-28T05:59:04;16.55;;;5.40;;
38557;SDS011;24333;42.626;23.308;2024-02-28T06:01:29;56.60;;;16.05;;
38557;SDS011;24333;42.626;23.308;2024-02-28T06:03:56;42.60;;;13.82;;
38557;SDS011;24333;42.626;23.308;2024-02-28T06:06:23;32.70;;;13.10;;
38557;SDS011;24333;42.626;23.308;2024-02-28T06:08:51;40.80;;;14.82;;
38557;SDS011;24333;42.626;23.308;2024-02-28T06:11:18;45.03;;;16.02;;
38557;SDS011;24333;42.626;23.308;2024-02-28T06:14:10;36.38;;;15.25;;
38557;SDS011;24333;42.626;23.308;2024-02-28T06:16:36;56.67;;;18.50;;
38557;SDS011;24333;42.626;23.308;2024-02-28T06:37:14;25.63;;;10.82;;
38557;SDS011;24333;42.626;23.308;2024-02-28T06:39:39;23.52;;;10.48;;
38557;SDS011;24333;42.626;23.308;2024-02-28T06:42:09;27.40;;;10.98;;
38557;SDS011;24333;42.626;23.308;2024-02-28T06:44:34;34.63;;;12.20;;
38557;SDS011;24333;42.626;23.308;2024-02-28T06:47:01;32.20;;;12.00;;
38557;SDS011;24333;42.626;23.308;2024-02-28T06:49:27;31.90;;;12.50;;
38557;SDS011;24333;42.626;23.308;2024-02-28T06:51:53;35.35;;;13.50;;
38557;SDS011;24333;42.626;23.308;2024-02-28T06:54:20;25.73;;;10.13;;
38557;SDS011;24333;42.626;23.308;2024-02-28T06:56:46;46.60;;;15.38;;
38557;SDS011;24333;42.626;23.308;2024-02-28T06:59:12;42.58;;;17.50;;
38557;SDS011;24333;42.626;23.308;2024-02-28T07:01:37;34.53;;;16.02;;
38557;SDS011;24333;42.626;23.308;2024-02-28T07:04:03;50.30;;;17.90;;
38557;SDS011;24333;42.626;23.308;2024-02-28T07:06:29;52.53;;;20.92;;
38557;SDS011;24333;42.626;23.308;2024-02-28T07:08:54;53.13;;;19.10;;
38557;SDS011;24333;42.626;23.308;2024-02-28T07:11:21;40.25;;;17.80;;
38557;SDS011;24333;42.626;23.308;2024-02-28T07:13:54;49.67;;;19.02;;
38557;SDS011;24333;42.626;23.308;2024-02-28T07:16:22;54.28;;;19.40;;
38557;SDS011;24333;42.626;23.308;2024-02-28T07:18:52;51.58;;;19.40;;
38557;SDS011;24333;42.626;23.308;2024-02-28T07:21:18;49.13;;;18.63;;
38557;SDS011;24333;42.626;23.308;2024-02-28T07:23:44;58.97;;;20.88;;
38557;SDS011;24333;42.626;23.308;2024-02-28T07:26:17;54.58;;;21.73;;
38557;SDS011;24333;42.626;23.308;2024-02-28T07:28:43;74.05;;;23.58;;
38557;SDS011;24333;42.626;23.308;2024-02-28T07:31:17;42.08;;;17.27;;
38557;SDS011;24333;42.626;23.308;2024-02-28T07:33:44;49.05;;;18.00;;
38557;SDS011;24333;42.626;23.308;2024-02-28T07:36:11;46.97;;;17.77;;
38557;SDS011;24333;42.626;23.308;2024-02-28T07:38:37;43.80;;;17.85;;
38557;SDS011;24333;42.626;23.308;2024-02-28T07:41:03;49.33;;;17.27;;
38557;SDS011;24333;42.626;23.308;2024-02-28T07:43:29;37.97;;;16.70;;
38557;SDS011;24333;42.626;23.308;2024-02-28T07:46:02;45.72;;;17.00;;
38557;SDS011;24333;42.626;23.308;2024-02-28T07:48:32;52.15;;;17.58;;
38557;SDS011;24333;42.626;23.308;2024-02-28T07:51:04;51.58;;;16.40;;
38557;SDS011;24333;42.626;23.308;2024-02-28T07:56:17;38.63;;;15.18;;
38557;SDS011;24333;42.626;23.308;2024-02-28T07:58:43;39.33;;;14.63;;
38557;SDS011;24333;42.626;23.308;2024-02-28T08:01:10;45.70;;;15.38;;
38557;SDS011;24333;42.626;23.308;2024-02-28T08:04:03;32.45;;;13.73;;
38557;SDS011;24333;42.626;23.308;2024-02-28T08:06:29;33.67;;;13.60;;
38557;SDS011;24333;42.626;23.308;2024-02-28T08:12:05;43.55;;;13.90;;
38557;SDS011;24333;42.626;23.308;2024-02-28T08:14:36;32.05;;;12.30;;
38557;SDS011;24333;42.626;23.308;2024-02-28T08:20:20;26.77;;;12.13;;
38557;SDS011;24333;42.626;23.308;2024-02-28T08:22:49;35.10;;;12.68;;
38557;SDS011;24333;42.626;23.308;2024-02-28T08:25:18;41.67;;;14.38;;
38557;SDS011;24333;42.626;23.308;2024-02-28T08:27:44;30.08;;;12.38;;
38557;SDS011;24333;42.626;23.308;2024-02-28T08:37:17;37.45;;;14.25;;
38557;SDS011;24333;42.626;23.308;2024-02-28T08:40:05;40.88;;;14.70;;
38557;SDS011;24333;42.626;23.308;2024-02-28T08:42:52;33.72;;;13.18;;
38557;SDS011;24333;42.626;23.308;2024-02-28T08:50:55;44.13;;;15.02;;
38557;SDS011;24333;42.626;23.308;2024-02-28T08:53:20;39.70;;;14.65;;
38557;SDS011;24333;42.626;23.308;2024-02-28T08:55:47;40.25;;;13.73;;
38557;SDS011;24333;42.626;23.308;2024-02-28T10:05:57;23.23;;;10.57;;
38557;SDS011;24333;42.626;23.308;2024-02-28T10:08:24;31.50;;;11.77;;
38557;SDS011;24333;42.626;23.308;2024-02-28T10:10:56;34.85;;;12.25;;
38557;SDS011;24333;42.626;23.308;2024-02-28T10:13:32;30.70;;;11.35;;
38557;SDS011;24333;42.626;23.308;2024-02-28T10:16:11;24.98;;;10.77;;
38557;SDS011;24333;42.626;23.308;2024-02-28T10:18:37;34.28;;;12.60;;
38557;SDS011;24333;42.626;23.308;2024-02-28T10:21:10;31.23;;;11.93;;
38557;SDS011;24333;42.626;23.308;2024-02-28T10:23:43;30.73;;;12.15;;
38557;SDS011;24333;42.626;23.308;2024-02-28T10:26:30;30.13;;;12.50;;
38557;SDS011;24333;42.626;23.308;2024-02-28T10:29:06;33.63;;;13.65;;
38557;SDS011;24333;42.626;23.308;2024-02-28T10:31:32;31.15;;;12.07;;
38557;SDS011;24333;42.626;23.308;2024-02-28T10:33:58;27.58;;;11.18;;
38557;SDS011;24333;42.626;23.308;2024-02-28T10:36:27;28.08;;;11.43;;
38557;SDS011;24333;42.626;23.308;2024-02-28T10:38:56;31.08;;;11.30;;
38557;SDS011;24333;42.626;23.308;2024-02-28T10:41:24;32.53;;;11.65;;
38557;SDS011;24333;42.626;23.308;2024-02-28T10:43:57;38.38;;;14.00;;
38557;SDS011;24333;42.626;23.308;2024-02-28T10:46:22;39.92;;;12.07;;
38557;SDS011;24333;42.626;23.308;2024-02-28T10:48:53;24.58;;;9.77;;
38557;SDS011;24333;42.626;23.308;2024-02-28T10:51:23;25.35;;;10.00;;
38557;SDS011;24333;42.626;23.308;2024-02-28T10:54:11;21.00;;;9.38;;
38557;SDS011;24333;42.626;23.308;2024-02-28T10:56:56;19.10;;;8.27;;
38557;SDS011;24333;42.626;23.308;2024-02-28T10:59:23;15.50;;;5.95;;
38557;SDS011;24333;42.626;23.308;2024-02-28T11:01:50;14.48;;;6.65;;
38557;SDS011;24333;42.626;23.308;2024-02-28T11:04:16;15.75;;;6.45;;
38557;SDS011;24333;42.626;23.308;2024-02-28T11:06:53;13.68;;;6.47;;
38557;SDS011;24333;42.626;23.308;2024-02-28T11:09:24;21.40;;;6.53;;
38557;SDS011;24333;42.626;23.308;2024-02-28T11:11:51;19.95;;;6.35;;
38557;SDS011;24333;42.626;23.308;2024-02-28T11:14:17;16.27;;;5.93;;
38557;SDS011;24333;42.626;23.308;2024-02-28T11:16:47;19.95;;;5.28;;
38557;SDS011;24333;42.626;23.308;2024-02-28T11:19:20;22.45;;;5.60;;
38557;SDS011;24333;42.626;23.308;2024-02-28T12:00:46;13.00;;;5.72;;
38557;SDS011;24333;42.626;23.308;2024-02-28T12:03:14;15.40;;;5.30;;
38557;SDS011;24333;42.626;23.308;2024-02-28T12:05:46;13.90;;;5.80;;
38557;SDS011;24333;42.626;23.308;2024-02-28T12:08:12;17.05;;;6.32;;
38557;SDS011;24333;42.626;23.308;2024-02-28T12:10:54;14.43;;;6.00;;
38557;SDS011;24333;42.626;23.308;2024-02-28T12:26:58;20.50;;;7.18;;
38557;SDS011;24333;42.626;23.308;2024-02-28T12:29:30;17.55;;;6.25;;
38557;SDS011;24333;42.626;23.308;2024-02-28T12:32:07;88.05;;;10.00;;
38557;SDS011;24333;42.626;23.308;2024-02-28T12:37:37;23.73;;;7.18;;
38557;SDS011;24333;42.626;23.308;2024-02-28T12:40:06;18.48;;;8.05;;
38557;SDS011;24333;42.626;23.308;2024-02-28T12:42:33;22.23;;;7.13;;
38557;SDS011;24333;42.626;23.308;2024-02-28T12:45:17;17.88;;;6.68;;
38557;SDS011;24333;42.626;23.308;2024-02-28T12:48:20;17.60;;;7.63;;
38557;SDS011;24333;42.626;23.308;2024-02-28T12:51:08;22.33;;;8.18;;
38557;SDS011;24333;42.626;23.308;2024-02-28T12:53:35;30.85;;;8.98;;
38557;SDS011;24333;42.626;23.308;2024-02-28T12:56:12;20.85;;;7.13;;
38557;SDS011;24333;42.626;23.308;2024-02-28T12:58:41;20.40;;;7.88;;
38557;SDS011;24333;42.626;23.308;2024-02-28T13:24:28;18.40;;;7.78;;
38557;SDS011;24333;42.626;23.308;2024-02-28T13:26:54;17.40;;;7.95;;
38557;SDS011;24333;42.626;23.308;2024-02-28T13:29:20;23.90;;;7.78;;
38557;SDS011;24333;42.626;23.308;2024-02-28T13:31:46;19.98;;;8.32;;
38557;SDS011;24333;42.626;23.308;2024-02-28T13:34:12;19.88;;;9.00;;
38557;SDS011;24333;42.626;23.308;2024-02-28T13:36:38;27.15;;;10.13;;
38557;SDS011;24333;42.626;23.308;2024-02-28T13:39:08;19.63;;;7.80;;
38557;SDS011;24333;42.626;23.308;2024-02-28T13:41:34;34.30;;;10.10;;
38557;SDS011;24333;42.626;23.308;2024-02-28T13:44:00;25.55;;;9.40;;
38557;SDS011;24333;42.626;23.308;2024-02-28T13:46:26;28.13;;;9.63;;
38557;SDS011;24333;42.626;23.308;2024-02-28T13:48:51;25.88;;;9.95;;
38557;SDS011;24333;42.626;23.308;2024-02-28T13:51:17;23.33;;;9.13;;
38557;SDS011;24333;42.626;23.308;2024-02-28T13:53:44;22.70;;;9.40;;
38557;SDS011;24333;42.626;23.308;2024-02-28T13:56:10;23.67;;;8.50;;
38557;SDS011;24333;42.626;23.308;2024-02-28T13:58:36;20.00;;;7.90;;
38557;SDS011;24333;42.626;23.308;2024-02-28T14:01:02;19.42;;;7.68;;
38557;SDS011;24333;42.626;23.308;2024-02-28T14:03:28;20.08;;;8.13;;
38557;SDS011;24333;42.626;23.308;2024-02-28T14:05:54;17.70;;;7.60;;
38557;SDS011;24333;42.626;23.308;2024-02-28T14:08:19;19.98;;;7.82;;
38557;SDS011;24333;42.626;23.308;2024-02-28T14:10:45;22.13;;;7.10;;
38557;SDS011;24333;42.626;23.308;2024-02-28T14:13:11;27.00;;;7.50;;
38557;SDS011;24333;42.626;23.308;2024-02-28T14:15:37;22.15;;;8.15;;
38557;SDS011;24333;42.626;23.308;2024-02-28T14:18:03;27.52;;;10.20;;
38557;SDS011;24333;42.626;23.308;2024-02-28T14:20:29;14.75;;;7.43;;
38557;SDS011;24333;42.626;23.308;2024-02-28T14:22:55;20.10;;;7.53;;
38557;SDS011;24333;42.626;23.308;2024-02-28T14:25:23;22.42;;;7.93;;
38557;SDS011;24333;42.626;23.308;2024-02-28T14:27:50;25.13;;;10.60;;
38557;SDS011;24333;42.626;23.308;2024-02-28T14:30:15;26.10;;;8.98;;
38557;SDS011;24333;42.626;23.308;2024-02-28T14:32:42;23.98;;;7.28;;
38557;SDS011;24333;42.626;23.308;2024-02-28T14:35:09;34.10;;;9.40;;
38557;SDS011;24333;42.626;23.308;2024-02-28T14:37:38;24.55;;;7.28;;
38557;SDS011;24333;42.626;23.308;2024-02-28T14:40:07;21.48;;;7.18;;
38557;SDS011;24333;42.626;23.308;2024-02-28T14:45:04;28.08;;;7.05;;
38557;SDS011;24333;42.626;23.308;2024-02-28T14:47:36;17.90;;;7.32;;
38557;SDS011;24333;42.626;23.308;2024-02-28T14:50:03;19.90;;;7.85;;
38557;SDS011;24333;42.626;23.308;2024-02-28T14:52:29;20.00;;;6.72;;
38557;SDS011;24333;42.626;23.308;2024-02-28T14:54:54;19.60;;;6.32;;
38557;SDS011;24333;42.626;23.308;2024-02-28T14:57:20;20.67;;;7.55;;
38557;SDS011;24333;42.626;23.308;2024-02-28T14:59:47;15.38;;;6.82;;
38557;SDS011;24333;42.626;23.308;2024-02-28T15:02:16;15.43;;;5.80;;
38557;SDS011;24333;42.626;23.308;2024-02-28T15:04:41;17.42;;;6.78;;
38557;SDS011;24333;42.626;23.308;2024-02-28T15:07:07;54.05;;;7.70;;
38557;SDS011;24333;42.626;23.308;2024-02-28T15:09:33;21.55;;;6.80;;
38557;SDS011;24333;42.626;23.308;2024-02-28T15:11:59;24.17;;;5.97;;
38557;SDS011;24333;42.626;23.308;2024-02-28T15:14:25;19.90;;;5.80;;
38557;SDS011;24333;42.626;23.308;2024-02-28T15:16:51;24.63;;;6.72;;
38557;SDS011;24333;42.626;23.308;2024-02-28T15:19:20;22.85;;;6.25;;
38557;SDS011;24333;42.626;23.308;2024-02-28T15:21:46;16.08;;;5.90;;
38557;SDS011;24333;42.626;23.308;2024-02-28T15:24:12;21.73;;;6.28;;
38557;SDS011;24333;42.626;23.308;2024-02-28T15:26:39;21.30;;;7.00;;
38557;SDS011;24333;42.626;23.308;2024-02-28T15:29:05;13.27;;;5.55;;
38557;SDS011;24333;42.626;23.308;2024-02-28T15:31:31;15.85;;;5.22;;
38557;SDS011;24333;42.626;23.308;2024-02-28T15:33:56;19.63;;;6.15;;
38557;SDS011;24333;42.626;23.308;2024-02-28T15:36:22;15.50;;;5.90;;
38557;SDS011;24333;42.626;23.308;2024-02-28T15:38:47;21.15;;;6.70;;
38557;SDS011;24333;42.626;23.308;2024-02-28T15:41:12;19.85;;;6.55;;
38557;SDS011;24333;42.626;23.308;2024-02-28T15:43:38;20.27;;;7.50;;
38557;SDS011;24333;42.626;23.308;2024-02-28T15:46:03;22.42;;;9.02;;
38557;SDS011;24333;42.626;23.308;2024-02-28T15:48:29;24.58;;;9.50;;
38557;SDS011;24333;42.626;23.308;2024-02-28T15:50:54;17.88;;;6.30;;
38557;SDS011;24333;42.626;23.308;2024-02-28T15:53:20;13.07;;;6.30;;
38557;SDS011;24333;42.626;23.308;2024-02-28T15:55:45;14.43;;;4.93;;
38557;SDS011;24333;42.626;23.308;2024-02-28T15:58:11;11.30;;;4.75;;
38557;SDS011;24333;42.626;23.308;2024-02-28T16:00:36;10.75;;;4.47;;
38557;SDS011;24333;42.626;23.308;2024-02-28T16:03:02;15.70;;;6.18;;
38557;SDS011;24333;42.626;23.308;2024-02-28T16:05:27;19.45;;;6.80;;
38557;SDS011;24333;42.626;23.308;2024-02-28T16:07:53;22.98;;;8.88;;
38557;SDS011;24333;42.626;23.308;2024-02-28T16:10:19;19.98;;;8.00;;
38557;SDS011;24333;42.626;23.308;2024-02-28T16:12:45;12.18;;;5.65;;
38557;SDS011;24333;42.626;23.308;2024-02-28T16:15:11;11.00;;;5.80;;
38557;SDS011;24333;42.626;23.308;2024-02-28T16:17:37;11.75;;;4.90;;
38557;SDS011;24333;42.626;23.308;2024-02-28T16:20:03;10.82;;;4.22;;
38557;SDS011;24333;42.626;23.308;2024-02-28T16:22:29;11.85;;;5.43;;
38557;SDS011;24333;42.626;23.308;2024-02-28T16:24:54;15.88;;;5.53;;
38557;SDS011;24333;42.626;23.308;2024-02-28T16:27:20;17.38;;;6.72;;
38557;SDS011;24333;42.626;23.308;2024-02-28T16:29:45;23.50;;;10.63;;
38557;SDS011;24333;42.626;23.308;2024-02-28T16:32:11;23.27;;;10.70;;
38557;SDS011;24333;42.626;23.308;2024-02-28T16:34:36;18.70;;;7.75;;
38557;SDS011;24333;42.626;23.308;2024-02-28T16:37:02;15.23;;;6.72;;
38557;SDS011;24333;42.626;23.308;2024-02-28T16:39:28;15.30;;;6.57;;
38557;SDS011;24333;42.626;23.308;2024-02-28T16:41:55;16.95;;;6.97;;
38557;SDS011;24333;42.626;23.308;2024-02-28T16:44:20;14.73;;;6.50;;
38557;SDS011;24333;42.626;23.308;2024-02-28T16:46:46;11.35;;;5.18;;
38557;SDS011;24333;42.626;23.308;2024-02-28T16:49:11;13.63;;;5.72;;
38557;SDS011;24333;42.626;23.308;2024-02-28T16:51:37;11.23;;;5.45;;
38557;SDS011;24333;42.626;23.308;2024-02-28T16:54:02;12.52;;;5.45;;
38557;SDS011;24333;42.626;23.308;2024-02-28T16:56:28;40.67;;;11.50;;
38557;SDS011;24333;42.626;23.308;2024-02-28T16:58:53;33.08;;;11.35;;
38557;SDS011;24333;42.626;23.308;2024-02-28T17:01:18;37.95;;;12.18;;
38557;SDS011;24333;42.626;23.308;2024-02-28T17:03:45;45.05;;;12.95;;
38557;SDS011;24333;42.626;23.308;2024-02-28T17:06:10;32.60;;;11.68;;
38557;SDS011;24333;42.626;23.308;2024-02-28T17:08:36;38.78;;;15.43;;
38557;SDS011;24333;42.626;23.308;2024-02-28T17:11:02;61.20;;;21.63;;
38557;SDS011;24333;42.626;23.308;2024-02-28T17:13:28;54.40;;;20.42;;
38557;SDS011;24333;42.626;23.308;2024-02-28T17:15:53;55.90;;;20.13;;
38557;SDS011;24333;42.626;23.308;2024-02-28T17:18:21;50.72;;;18.17;;
38557;SDS011;24333;42.626;23.308;2024-02-28T17:20:47;37.35;;;10.88;;
38557;SDS011;24333;42.626;23.308;2024-02-28T17:23:13;14.63;;;8.00;;
38557;SDS011;24333;42.626;23.308;2024-02-28T17:25:38;18.33;;;6.47;;
38557;SDS011;24333;42.626;23.308;2024-02-28T17:28:04;17.05;;;5.45;;
38557;SDS011;24333;42.626;23.308;2024-02-28T17:41:55;26.20;;;8.85;;
38557;SDS011;24333;42.626;23.308;2024-02-28T21:56:01;12.70;;;4.65;;
38557;SDS011;24333;42.626;23.308;2024-02-28T22:14:07;13.48;;;4.20;;
38557;SDS011;24333;42.626;23.308;2024-02-28T23:46:49;12.07;;;4.13;;
38557;SDS011;24333;42.626;23.308;2024-02-28T23:49:16;8.10;;;4.47;;